In Rescue
 
Open Full Screen Window  High Contrast Mode
Wind Gusting 00 knots
04
March 19, 2019 7:35 PM EDT
Weather Information
Wind Direction
  220 °
Wind Speed
  04 kt (5 mph)
Wind Gust
  00 kt (0 mph)
Altimeter
30.30 in
Visibility
10 SM
Temperature
06° C
43° F
Dewpoint
-03° C
27° F
Humidity
53%
Sky Condition
Clear
VFR

METAR KOEB 192335Z AUTO 22004KT 10SM CLR 06/M03 A3030 RMK AO2 T00591031

FAA Disclaimer: The data displayed is for advisory purposes only and is not to be used for flight planning or operations.